Time;durP1;ratioP1;P1;durP2;ratioP2;P2;SDS_P1;SDS_P2;PMS_P1;PMS_P2;Temp;Humidity;BMP_temperature;BMP_pressure;BME280_temperature;BME280_humidity;BME280_pressure;Samples;Min_cycle;Max_cycle;Signal;HPM_P1;HPM_P2
2022/10/10 00:00:03;;;;;;;5.28;3.20;;;10.00;99.90;;;;;;4956379;28;20047;-60
2022/10/10 00:02:29;;;;;;;6.43;2.90;;;10.00;99.90;;;;;;4953570;28;20050;-60
2022/10/10 00:04:55;;;;;;;5.25;3.38;;;10.00;99.90;;;;;;4957390;28;20516;-59
2022/10/10 00:07:20;;;;;;;6.78;3.10;;;10.00;99.90;;;;;;4944114;28;20485;-60
2022/10/10 00:09:46;;;;;;;5.72;3.10;;;10.00;99.90;;;;;;4952118;28;20043;-59
2022/10/10 00:12:12;;;;;;;7.10;3.30;;;9.90;99.90;;;;;;4951716;28;20094;-60
2022/10/10 00:14:38;;;;;;;6.28;3.60;;;10.00;99.90;;;;;;4957263;28;20486;-60
2022/10/10 00:17:04;;;;;;;3.95;2.85;;;9.90;99.90;;;;;;4944702;28;20053;-59
2022/10/10 00:19:30;;;;;;;6.72;3.42;;;9.90;99.90;;;;;;4937919;28;20409;-60
2022/10/10 00:21:56;;;;;;;6.18;3.20;;;9.90;99.90;;;;;;4955592;28;20046;-60
2022/10/10 00:24:22;;;;;;;3.45;3.15;;;9.80;99.90;;;;;;4916872;28;20055;-61
2022/10/10 00:26:47;;;;;;;6.28;3.03;;;9.80;99.90;;;;;;4955884;28;20058;-60
2022/10/10 00:29:13;;;;;;;11.55;3.47;;;9.80;99.90;;;;;;4921572;28;20086;-60
2022/10/10 00:31:39;;;;;;;8.70;3.38;;;9.90;99.90;;;;;;4935775;28;20051;-59
2022/10/10 00:34:04;;;;;;;7.25;3.50;;;9.80;99.90;;;;;;4933951;28;20039;-59
2022/10/10 00:36:30;;;;;;;6.95;3.25;;;9.80;99.90;;;;;;4944598;28;20043;-61
2022/10/10 00:38:56;;;;;;;5.45;3.28;;;9.80;99.90;;;;;;4953444;28;20078;-59
2022/10/10 00:41:22;;;;;;;7.85;3.10;;;9.70;99.90;;;;;;4953423;28;20539;-60
2022/10/10 00:44:21;;;;;;;7.75;3.42;;;9.80;99.90;;;;;;4946816;28;20442;-60
2022/10/10 00:46:47;;;;;;;5.82;3.30;;;9.70;99.90;;;;;;4886787;28;20552;-59
2022/10/10 00:49:21;;;;;;;4.95;3.35;;;9.70;99.90;;;;;;4954298;28;20043;-60
2022/10/10 00:51:52;;;;;;;7.35;3.55;;;9.70;99.90;;;;;;4932325;28;20043;-60
2022/10/10 00:54:20;;;;;;;6.63;3.38;;;9.70;99.90;;;;;;4954172;28;20051;-59
2022/10/10 00:57:09;;;;;;;5.22;3.38;;;9.70;99.90;;;;;;4945511;28;20071;-61
2022/10/10 00:59:37;;;;;;;7.78;3.17;;;9.70;99.90;;;;;;4933458;28;20043;-59
2022/10/10 01:02:04;;;;;;;5.50;3.05;;;9.70;99.90;;;;;;4937604;28;20047;-59
2022/10/10 01:04:36;;;;;;;8.80;3.90;;;9.60;99.90;;;;;;4935118;28;20053;-60
2022/10/10 01:07:10;;;;;;;11.15;3.50;;;9.60;99.90;;;;;;4934991;28;20062;-59
2022/10/10 01:09:38;;;;;;;7.55;3.42;;;9.60;99.90;;;;;;4935401;28;20086;-60
2022/10/10 01:12:19;;;;;;;6.30;3.58;;;9.50;99.90;;;;;;4938328;28;20046;-61
2022/10/10 01:14:54;;;;;;;10.35;3.45;;;9.60;99.90;;;;;;4952706;28;20042;-60
2022/10/10 01:17:31;;;;;;;8.20;3.63;;;9.50;99.90;;;;;;4952438;28;20053;-59
2022/10/10 01:20:29;;;;;;;6.43;3.45;;;9.50;99.90;;;;;;4943409;28;20141;-60
2022/10/10 01:23:10;;;;;;;7.15;3.38;;;9.50;99.90;;;;;;4913223;28;21878;-61
2022/10/10 01:26:10;;;;;;;7.60;3.40;;;9.50;99.90;;;;;;4947250;28;20153;-60
2022/10/10 01:28:52;;;;;;;7.90;3.50;;;9.50;99.90;;;;;;4931372;28;20046;-63
2022/10/10 01:31:22;;;;;;;7.45;3.40;;;9.40;99.90;;;;;;4923683;28;20537;-60
2022/10/10 01:34:03;;;;;;;9.18;3.88;;;9.40;99.90;;;;;;4951013;28;20195;-59
2022/10/10 01:36:41;;;;;;;7.68;3.65;;;9.40;99.90;;;;;;4935437;28;20449;-60
2022/10/10 01:39:27;;;;;;;5.78;3.40;;;9.40;99.90;;;;;;4934661;28;20043;-59
2022/10/10 01:42:09;;;;;;;6.50;3.78;;;9.30;99.90;;;;;;4922011;28;20129;-60
2022/10/10 01:44:35;;;;;;;6.10;3.42;;;9.30;99.90;;;;;;4954832;28;20051;-59
2022/10/10 01:47:00;;;;;;;7.15;3.20;;;9.30;99.90;;;;;;4947906;28;20097;-60
2022/10/10 01:49:31;;;;;;;9.15;3.65;;;9.30;99.90;;;;;;4952084;28;20043;-60
2022/10/10 01:52:15;;;;;;;6.25;3.50;;;9.20;99.90;;;;;;4953814;28;20055;-60
2022/10/10 01:54:53;;;;;;;6.78;3.70;;;9.20;99.90;;;;;;4955968;28;20093;-60
2022/10/10 01:57:48;;;;;;;5.22;3.50;;;9.20;99.90;;;;;;4955224;28;20060;-61
2022/10/10 02:00:17;;;;;;;6.78;3.67;;;9.20;99.90;;;;;;4943208;28;20071;-58
2022/10/10 02:03:03;;;;;;;7.70;3.80;;;9.20;99.90;;;;;;4944078;28;20051;-59
2022/10/10 02:05:40;;;;;;;7.72;3.92;;;9.20;99.90;;;;;;4952333;28;20054;-60
2022/10/10 02:08:07;;;;;;;4.88;3.67;;;9.10;99.90;;;;;;4946735;28;20131;-59
2022/10/10 02:10:41;;;;;;;9.18;3.78;;;9.10;99.90;;;;;;4932476;28;20047;-60
2022/10/10 02:13:10;;;;;;;5.45;3.83;;;9.10;99.90;;;;;;4954069;28;20068;-61
2022/10/10 02:15:41;;;;;;;6.45;3.65;;;9.10;99.90;;;;;;4952382;28;20062;-61
2022/10/10 02:18:10;;;;;;;5.75;4.18;;;9.10;99.90;;;;;;4952387;28;20781;-60
2022/10/10 02:20:36;;;;;;;6.68;4.10;;;9.10;99.90;;;;;;4934506;28;21000;-59
2022/10/10 02:23:04;;;;;;;5.35;3.83;;;9.10;99.90;;;;;;4953706;28;20118;-59
2022/10/10 02:25:35;;;;;;;5.72;3.90;;;9.10;99.90;;;;;;4950673;28;20062;-60
2022/10/10 02:28:09;;;;;;;9.98;4.20;;;9.00;99.90;;;;;;4950624;28;20054;-63
2022/10/10 02:30:39;;;;;;;8.27;3.83;;;9.00;99.90;;;;;;4944456;28;20049;-61
2022/10/10 02:33:07;;;;;;;6.22;3.88;;;9.00;99.90;;;;;;4943083;28;20102;-59
2022/10/10 02:35:44;;;;;;;7.00;4.00;;;9.00;99.90;;;;;;4945399;28;20045;-60
2022/10/10 02:38:14;;;;;;;7.22;4.15;;;9.00;99.90;;;;;;4954455;28;20488;-60
2022/10/10 02:40:41;;;;;;;9.43;4.05;;;9.00;99.90;;;;;;4935740;28;20050;-61
2022/10/10 02:43:09;;;;;;;5.75;4.10;;;8.90;99.90;;;;;;4952360;28;20157;-60
2022/10/10 02:45:36;;;;;;;11.18;4.40;;;8.90;99.90;;;;;;4953668;28;20171;-60
2022/10/10 02:48:03;;;;;;;8.00;4.43;;;8.90;99.90;;;;;;4938169;28;20043;-60
2022/10/10 02:50:30;;;;;;;7.93;4.50;;;8.90;99.90;;;;;;4944393;28;20103;-60
2022/10/10 02:52:56;;;;;;;5.95;4.50;;;8.90;99.90;;;;;;4952029;28;20485;-61
2022/10/10 02:55:22;;;;;;;7.07;4.07;;;8.90;99.90;;;;;;4956531;28;20172;-59
2022/10/10 02:57:48;;;;;;;8.02;4.75;;;8.90;99.90;;;;;;4955007;28;20055;-59
2022/10/10 03:00:14;;;;;;;8.32;4.72;;;8.80;99.90;;;;;;4944034;28;20054;-58
2022/10/10 03:02:40;;;;;;;5.63;4.43;;;8.80;99.90;;;;;;4932806;28;20058;-59
2022/10/10 03:05:07;;;;;;;6.80;4.10;;;8.80;99.90;;;;;;4949340;28;20467;-59
2022/10/10 03:07:33;;;;;;;10.35;5.32;;;8.80;99.90;;;;;;4950787;28;20085;-60
2022/10/10 03:09:59;;;;;;;6.70;4.35;;;8.80;99.90;;;;;;4934959;28;20051;-59
2022/10/10 03:12:25;;;;;;;7.63;4.85;;;8.70;99.90;;;;;;4955314;28;20046;-59
2022/10/10 03:14:50;;;;;;;8.68;5.28;;;8.80;99.90;;;;;;4940945;28;20043;-60
2022/10/10 03:17:16;;;;;;;9.55;4.93;;;8.80;99.90;;;;;;4930883;28;20047;-61
2022/10/10 03:19:42;;;;;;;6.20;4.82;;;8.80;99.90;;;;;;4960546;28;20503;-60
2022/10/10 03:22:08;;;;;;;8.57;5.03;;;8.80;99.90;;;;;;4956705;28;20130;-59
2022/10/10 03:24:34;;;;;;;6.25;4.50;;;8.80;99.90;;;;;;4956272;28;20050;-60
2022/10/10 03:27:00;;;;;;;7.68;5.32;;;8.80;99.90;;;;;;4954154;28;20057;-60
2022/10/10 03:29:25;;;;;;;8.02;5.22;;;8.80;99.90;;;;;;4956051;28;20047;-61
2022/10/10 03:31:51;;;;;;;7.00;4.70;;;8.70;99.90;;;;;;4949399;28;20058;-60
2022/10/10 03:34:17;;;;;;;7.28;5.10;;;8.70;99.90;;;;;;4931595;28;20047;-59
2022/10/10 03:36:43;;;;;;;6.15;4.47;;;8.70;99.90;;;;;;4949609;28;20121;-60
2022/10/10 03:39:09;;;;;;;8.68;5.20;;;8.70;99.90;;;;;;4949286;28;20051;-60
2022/10/10 03:41:35;;;;;;;6.82;4.78;;;8.70;99.90;;;;;;4935702;28;20144;-60
2022/10/10 03:44:01;;;;;;;9.77;5.70;;;8.70;99.90;;;;;;4937543;28;20074;-60
2022/10/10 03:46:27;;;;;;;6.97;5.30;;;8.70;99.90;;;;;;4937252;28;20141;-59
2022/10/10 03:48:53;;;;;;;6.97;5.20;;;8.70;99.90;;;;;;4957949;28;20047;-59
2022/10/10 03:51:18;;;;;;;10.18;5.50;;;8.60;99.90;;;;;;4932963;28;20063;-61
2022/10/10 03:53:44;;;;;;;7.47;5.50;;;8.70;99.90;;;;;;4946995;28;20050;-60
2022/10/10 03:56:11;;;;;;;9.98;5.60;;;8.60;99.90;;;;;;4945924;28;21031;-59
2022/10/10 03:58:36;;;;;;;9.80;5.38;;;8.60;99.90;;;;;;4955007;28;20085;-59
2022/10/10 04:01:03;;;;;;;7.15;4.95;;;8.60;99.90;;;;;;4955510;28;20046;-60
2022/10/10 04:03:29;;;;;;;8.40;5.72;;;8.60;99.90;;;;;;4945720;28;20085;-60
2022/10/10 04:05:55;;;;;;;9.43;5.70;;;8.60;99.90;;;;;;4919519;28;20688;-59
2022/10/10 04:08:21;;;;;;;9.68;5.82;;;8.60;99.90;;;;;;4952664;28;20047;-60
2022/10/10 04:10:48;;;;;;;8.77;5.95;;;8.60;99.90;;;;;;4952539;28;20366;-60
2022/10/10 04:13:14;;;;;;;8.07;5.75;;;8.60;99.90;;;;;;4927745;28;20809;-59
2022/10/10 04:15:40;;;;;;;8.02;5.60;;;8.60;99.90;;;;;;4941168;28;20043;-58
2022/10/10 04:18:06;;;;;;;9.65;5.57;;;8.60;99.90;;;;;;4931229;28;20045;-60
2022/10/10 04:20:32;;;;;;;9.18;6.18;;;8.50;99.90;;;;;;4936772;28;20047;-60
2022/10/10 04:22:58;;;;;;;8.85;5.72;;;8.60;99.90;;;;;;4956213;28;20490;-60
2022/10/10 04:25:23;;;;;;;9.30;6.10;;;8.50;99.90;;;;;;4956916;28;20043;-60
2022/10/10 04:27:49;;;;;;;11.13;5.80;;;8.50;99.90;;;;;;4957634;28;20039;-59
2022/10/10 04:30:16;;;;;;;9.10;6.38;;;8.50;99.90;;;;;;4936253;28;20042;-61
2022/10/10 04:32:41;;;;;;;10.93;6.28;;;8.50;99.90;;;;;;4945431;28;20150;-59
2022/10/10 04:35:07;;;;;;;9.00;5.82;;;8.50;99.90;;;;;;4935979;28;20720;-59
2022/10/10 04:37:34;;;;;;;10.23;6.68;;;8.50;99.90;;;;;;4951033;28;20042;-59
2022/10/10 04:40:00;;;;;;;8.93;5.53;;;8.40;99.90;;;;;;4953882;28;20098;-60
2022/10/10 04:42:26;;;;;;;8.45;6.60;;;8.40;99.90;;;;;;4955843;28;20047;-60
2022/10/10 04:44:51;;;;;;;12.70;5.90;;;8.40;99.90;;;;;;4933591;28;20058;-59
2022/10/10 04:47:17;;;;;;;11.68;6.85;;;8.40;99.90;;;;;;4944847;28;20050;-59
2022/10/10 04:49:43;;;;;;;10.52;6.07;;;8.30;99.90;;;;;;4930973;28;20815;-59
2022/10/10 04:52:09;;;;;;;9.55;7.35;;;8.30;99.90;;;;;;4952864;28;20053;-61
2022/10/10 04:54:35;;;;;;;15.77;6.40;;;8.30;99.90;;;;;;4957194;28;20517;-59
2022/10/10 04:57:02;;;;;;;12.05;6.80;;;8.30;99.90;;;;;;4951759;28;20047;-60
2022/10/10 04:59:27;;;;;;;9.93;6.45;;;8.20;99.90;;;;;;4954973;28;20047;-59
2022/10/10 05:01:53;;;;;;;10.48;6.95;;;8.20;99.90;;;;;;4951981;28;20047;-60
2022/10/10 05:04:19;;;;;;;10.13;6.72;;;8.20;99.90;;;;;;4932058;28;20513;-61
2022/10/10 05:06:45;;;;;;;10.95;6.75;;;8.20;99.90;;;;;;4950827;28;20097;-60
2022/10/10 05:09:11;;;;;;;10.82;6.85;;;8.20;99.90;;;;;;4932115;28;20043;-61
2022/10/10 05:11:36;;;;;;;11.73;6.57;;;8.20;99.90;;;;;;4949508;28;20134;-61
2022/10/10 05:14:03;;;;;;;10.30;6.90;;;8.10;99.90;;;;;;4928336;28;20495;-60
2022/10/10 05:16:28;;;;;;;12.35;7.13;;;8.20;99.90;;;;;;4928293;28;20405;-60
2022/10/10 05:18:56;;;;;;;11.48;7.47;;;8.10;99.90;;;;;;4948895;28;20043;-59
2022/10/10 05:21:22;;;;;;;11.13;7.53;;;8.10;99.90;;;;;;4936133;28;20118;-61
2022/10/10 05:23:48;;;;;;;10.50;7.30;;;8.10;99.90;;;;;;4935367;28;20054;-60
2022/10/10 05:26:14;;;;;;;9.43;6.80;;;8.00;99.90;;;;;;4929967;28;20551;-60
2022/10/10 05:28:40;;;;;;;10.60;7.10;;;8.00;99.90;;;;;;4950026;28;20047;-59
2022/10/10 05:31:06;;;;;;;11.38;6.82;;;8.00;99.90;;;;;;4929359;28;20605;-60
2022/10/10 05:33:33;;;;;;;12.30;7.32;;;8.00;99.90;;;;;;4934047;28;20042;-60
2022/10/10 05:36:17;;;;;;;8.27;6.70;;;8.00;99.90;;;;;;4945911;28;20047;-60
2022/10/10 05:38:43;;;;;;;9.73;7.00;;;8.00;99.90;;;;;;4947303;28;20058;-61
2022/10/10 05:41:09;;;;;;;11.57;7.18;;;8.00;99.90;;;;;;4932289;28;20051;-60
2022/10/10 05:43:35;;;;;;;9.73;7.13;;;8.00;99.90;;;;;;4947035;28;20061;-61
2022/10/10 05:46:04;;;;;;;11.80;7.30;;;8.00;99.90;;;;;;4931976;28;20055;-59
2022/10/10 05:48:30;;;;;;;11.13;7.13;;;8.00;99.90;;;;;;4951607;28;20463;-59
2022/10/10 05:50:58;;;;;;;17.80;7.95;;;8.00;99.90;;;;;;4951888;28;20055;-59
2022/10/10 05:53:26;;;;;;;10.60;7.45;;;8.00;99.90;;;;;;4951496;28;20078;-61
2022/10/10 05:55:52;;;;;;;11.20;7.20;;;7.90;99.90;;;;;;4940724;28;20738;-61
2022/10/10 05:58:19;;;;;;;11.15;7.72;;;8.00;99.90;;;;;;4949332;28;20349;-60
2022/10/10 06:00:46;;;;;;;13.60;7.65;;;8.00;99.90;;;;;;4922359;28;20481;-60
2022/10/10 06:03:15;;;;;;;10.70;7.40;;;8.00;99.90;;;;;;4946830;28;20038;-60
2022/10/10 06:05:43;;;;;;;16.85;8.00;;;8.00;99.90;;;;;;4944163;28;20059;-59
2022/10/10 06:08:10;;;;;;;13.10;7.75;;;8.00;99.90;;;;;;4945446;28;20054;-56
2022/10/10 06:10:38;;;;;;;14.80;8.00;;;8.00;99.90;;;;;;4934031;28;20486;-54
2022/10/10 06:13:04;;;;;;;12.93;7.45;;;8.00;99.90;;;;;;4949034;28;20039;-55
2022/10/10 06:15:30;;;;;;;11.63;7.75;;;8.10;99.90;;;;;;4953141;28;20050;-55
2022/10/10 06:17:56;;;;;;;13.38;8.00;;;8.00;99.90;;;;;;4952149;28;20047;-57
2022/10/10 06:20:21;;;;;;;12.15;7.68;;;8.00;99.90;;;;;;4955123;28;20039;-54
2022/10/10 06:22:47;;;;;;;12.98;7.50;;;8.00;99.90;;;;;;4955963;28;20587;-56
2022/10/10 06:25:13;;;;;;;13.63;8.18;;;8.00;99.90;;;;;;4953307;28;20043;-57
2022/10/10 06:27:39;;;;;;;12.02;8.13;;;8.00;99.90;;;;;;4953585;28;20382;-57
2022/10/10 06:30:05;;;;;;;12.07;7.43;;;8.00;99.90;;;;;;4952410;28;20405;-55
2022/10/10 06:32:31;;;;;;;12.32;7.63;;;8.00;99.90;;;;;;4953890;28;20050;-56
2022/10/10 06:34:57;;;;;;;10.27;7.70;;;8.00;99.90;;;;;;4957015;28;20046;-56
2022/10/10 06:37:22;;;;;;;13.50;8.07;;;8.10;99.90;;;;;;4952424;28;20991;-57
2022/10/10 06:39:50;;;;;;;13.65;8.27;;;8.10;99.90;;;;;;4957072;28;20051;-56
2022/10/10 06:42:16;;;;;;;12.93;8.32;;;8.10;99.90;;;;;;4952599;28;20050;-57
2022/10/10 06:44:41;;;;;;;9.98;7.30;;;8.10;99.90;;;;;;4955151;28;20042;-55
2022/10/10 06:47:10;;;;;;;11.30;7.80;;;8.10;99.90;;;;;;4957710;28;20496;-55
2022/10/10 06:49:36;;;;;;;12.65;8.05;;;8.20;99.90;;;;;;4959707;28;20051;-56
2022/10/10 06:52:02;;;;;;;9.77;7.78;;;8.20;99.90;;;;;;4961140;28;20047;-56
2022/10/10 06:54:28;;;;;;;15.15;7.80;;;8.20;99.90;;;;;;4961022;28;20441;-55
2022/10/10 06:56:54;;;;;;;15.82;8.68;;;8.30;99.90;;;;;;4941050;28;20130;-56
2022/10/10 06:59:19;;;;;;;13.30;8.00;;;8.30;99.90;;;;;;4954154;28;20043;-56
2022/10/10 07:01:45;;;;;;;10.60;7.45;;;8.30;99.90;;;;;;4947444;28;20121;-53
2022/10/10 07:04:12;;;;;;;11.48;8.20;;;8.40;99.90;;;;;;4958808;28;20050;-55
2022/10/10 07:06:38;;;;;;;11.38;7.53;;;8.40;99.90;;;;;;4957856;28;20049;-57
2022/10/10 07:09:04;;;;;;;15.05;8.18;;;8.50;99.90;;;;;;4941332;28;20122;-56
2022/10/10 07:11:30;;;;;;;11.30;8.27;;;8.50;99.90;;;;;;4957238;28;20073;-55
2022/10/10 07:13:55;;;;;;;10.15;7.78;;;8.50;99.90;;;;;;4956344;28;20049;-54
2022/10/10 07:16:22;;;;;;;14.93;8.75;;;8.50;99.90;;;;;;4957922;28;20043;-56
2022/10/10 07:18:48;;;;;;;13.95;8.20;;;8.60;99.90;;;;;;4956613;28;20039;-55
2022/10/10 07:21:14;;;;;;;15.10;8.88;;;8.70;99.90;;;;;;4953378;28;20047;-56
2022/10/10 07:23:39;;;;;;;14.07;8.40;;;8.70;99.90;;;;;;4952833;28;20047;-57
2022/10/10 07:26:09;;;;;;;13.18;7.88;;;8.80;99.90;;;;;;4938796;28;20082;-56
2022/10/10 07:28:35;;;;;;;13.80;8.15;;;8.80;99.90;;;;;;4956203;28;20065;-57
2022/10/10 07:31:04;;;;;;;16.65;8.65;;;8.90;99.90;;;;;;4957793;28;20055;-54
2022/10/10 07:33:36;;;;;;;13.13;8.75;;;8.90;99.90;;;;;;4955428;28;20047;-55
2022/10/10 07:36:02;;;;;;;12.93;8.60;;;9.00;99.90;;;;;;4956591;28;20051;-56
2022/10/10 07:38:28;;;;;;;13.55;8.48;;;9.00;99.90;;;;;;4953787;28;20105;-58
2022/10/10 07:40:54;;;;;;;11.90;8.48;;;9.00;99.90;;;;;;4956334;28;20126;-58
2022/10/10 07:43:19;;;;;;;11.70;8.20;;;9.10;99.90;;;;;;4936390;28;20054;-59
2022/10/10 07:45:45;;;;;;;16.35;8.70;;;9.10;99.90;;;;;;4955441;28;20040;-59
2022/10/10 07:48:11;;;;;;;13.00;8.48;;;9.10;99.90;;;;;;4953278;28;20076;-57
2022/10/10 07:50:41;;;;;;;16.42;8.40;;;9.10;99.90;;;;;;4956342;28;20042;-59
2022/10/10 07:53:08;;;;;;;16.88;8.93;;;9.30;99.90;;;;;;4952426;28;20097;-58
2022/10/10 07:55:37;;;;;;;14.00;8.30;;;9.20;99.90;;;;;;4956526;28;20118;-59
2022/10/10 07:58:03;;;;;;;15.32;8.43;;;9.30;99.90;;;;;;4956435;28;20114;-58
2022/10/10 08:00:29;;;;;;;19.50;8.52;;;9.30;99.90;;;;;;4956500;28;20046;-59
2022/10/10 08:02:55;;;;;;;13.20;7.90;;;9.40;99.90;;;;;;4955233;28;20042;-57
2022/10/10 08:05:20;;;;;;;18.35;9.10;;;9.40;99.90;;;;;;4931657;28;20154;-59
2022/10/10 08:07:46;;;;;;;14.40;8.27;;;9.50;99.90;;;;;;4955365;28;20122;-58
2022/10/10 08:10:12;;;;;;;13.30;8.90;;;9.60;99.90;;;;;;4935653;28;20061;-59
2022/10/10 08:12:38;;;;;;;15.40;8.30;;;9.80;99.90;;;;;;4953534;28;20130;-59
2022/10/10 08:15:05;;;;;;;12.50;8.27;;;9.90;99.90;;;;;;4953929;28;20046;-59
2022/10/10 08:17:31;;;;;;;13.73;8.20;;;10.00;99.90;;;;;;4955634;28;20038;-59
2022/10/10 08:19:57;;;;;;;14.50;8.90;;;10.10;99.90;;;;;;4954004;28;20053;-57
2022/10/10 08:22:22;;;;;;;13.00;8.10;;;10.20;99.90;;;;;;4955191;28;20043;-58
2022/10/10 08:24:49;;;;;;;14.57;7.85;;;10.30;99.90;;;;;;4956263;28;20055;-58
2022/10/10 08:27:16;;;;;;;12.88;8.05;;;10.50;99.90;;;;;;4950081;28;20044;-59
2022/10/10 08:29:43;;;;;;;12.18;8.23;;;10.60;99.90;;;;;;4952393;28;20107;-59
2022/10/10 08:32:09;;;;;;;12.75;8.35;;;10.80;99.90;;;;;;4955721;28;20042;-59
2022/10/10 08:34:34;;;;;;;10.38;8.15;;;10.90;99.90;;;;;;4955672;28;20109;-58
2022/10/10 08:37:00;;;;;;;13.98;7.90;;;11.00;99.90;;;;;;4954286;28;20474;-57
2022/10/10 08:39:26;;;;;;;13.43;8.25;;;11.10;99.90;;;;;;4956775;28;20426;-59
2022/10/10 08:41:56;;;;;;;15.70;8.63;;;11.20;99.90;;;;;;4954336;28;21129;-57
2022/10/10 08:44:27;;;;;;;13.52;7.97;;;11.30;99.90;;;;;;4957617;28;20043;-57
2022/10/10 08:47:04;;;;;;;14.13;8.60;;;11.50;99.90;;;;;;4955631;28;20062;-57
2022/10/10 08:49:42;;;;;;;12.82;7.60;;;11.50;99.90;;;;;;4957070;28;20053;-57
2022/10/10 08:52:32;;;;;;;21.50;8.10;;;11.70;99.90;;;;;;4956085;28;20054;-58
2022/10/10 08:55:01;;;;;;;11.63;8.15;;;11.80;99.90;;;;;;4957462;28;20668;-58
2022/10/10 08:57:55;;;;;;;13.63;8.85;;;11.90;99.90;;;;;;4955745;28;20513;-56
2022/10/10 09:00:24;;;;;;;15.23;8.43;;;12.00;99.90;;;;;;4913205;28;20106;-59
2022/10/10 09:02:56;;;;;;;12.55;8.18;;;12.10;99.90;;;;;;4954358;28;20129;-59
2022/10/10 09:05:40;;;;;;;17.10;8.00;;;12.20;99.90;;;;;;4956291;28;20125;-59
2022/10/10 09:08:29;;;;;;;13.18;8.50;;;12.30;99.90;;;;;;4956475;28;20498;-57
2022/10/10 09:11:21;;;;;;;17.90;8.50;;;12.40;99.90;;;;;;4889003;28;20447;-58
2022/10/10 09:14:20;;;;;;;14.77;8.32;;;12.50;99.90;;;;;;4956535;28;20043;-59
2022/10/10 09:16:59;;;;;;;14.02;8.00;;;12.70;99.90;;;;;;4957167;28;20043;-59
2022/10/10 09:20:03;;;;;;;12.40;8.00;;;12.80;99.90;;;;;;4953570;28;20051;-57
2022/10/10 09:22:34;;;;;;;11.77;7.95;;;12.90;99.90;;;;;;4956858;28;20054;-59
2022/10/10 09:25:28;;;;;;;12.45;7.70;;;12.90;99.90;;;;;;4956974;28;20051;-59
2022/10/10 09:28:03;;;;;;;12.85;8.32;;;13.00;99.90;;;;;;4953144;28;20110;-57
2022/10/10 09:30:32;;;;;;;15.13;8.95;;;12.90;99.90;;;;;;4958278;28;20556;-59
2022/10/10 09:33:22;;;;;;;12.45;8.18;;;13.00;99.90;;;;;;4955450;28;20051;-58
2022/10/10 09:35:50;;;;;;;12.73;8.32;;;13.00;99.90;;;;;;4953907;28;20046;-58
2022/10/10 09:38:26;;;;;;;14.43;9.32;;;13.10;99.90;;;;;;4957912;28;20044;-58
2022/10/10 09:41:01;;;;;;;12.95;8.52;;;13.20;99.90;;;;;;4957282;28;20485;-59
2022/10/10 09:43:31;;;;;;;14.25;9.90;;;13.30;99.90;;;;;;4956252;28;20047;-59
2022/10/10 09:45:57;;;;;;;14.40;9.18;;;13.40;99.90;;;;;;4955311;28;20409;-59
2022/10/10 09:48:36;;;;;;;17.73;9.07;;;13.50;99.90;;;;;;4956841;28;20059;-56
2022/10/10 09:51:06;;;;;;;16.15;10.15;;;13.60;99.90;;;;;;4954896;28;20047;-59
2022/10/10 09:53:32;;;;;;;16.27;10.60;;;13.70;99.90;;;;;;4954169;28;20043;-58
2022/10/10 09:55:58;;;;;;;17.90;10.32;;;13.90;99.90;;;;;;4956054;28;20097;-59
2022/10/10 09:58:35;;;;;;;13.18;9.50;;;14.00;99.90;;;;;;4956217;28;20118;-59
2022/10/10 10:01:39;;;;;;;14.52;10.43;;;14.20;99.90;;;;;;4955931;28;20489;-60
2022/10/10 10:04:19;;;;;;;12.75;8.25;;;14.30;99.90;;;;;;4952526;28;20101;-60
2022/10/10 10:06:50;;;;;;;14.98;8.82;;;14.60;99.90;;;;;;4956559;28;20067;-58
2022/10/10 10:09:21;;;;;;;17.13;9.07;;;14.70;99.90;;;;;;4955706;28;20047;-59
2022/10/10 10:11:53;;;;;;;14.77;9.18;;;14.80;99.90;;;;;;4954632;28;20072;-57
2022/10/10 10:14:34;;;;;;;12.52;8.20;;;14.90;99.90;;;;;;4953954;28;20042;-58
2022/10/10 10:17:06;;;;;;;13.10;8.25;;;14.90;99.90;;;;;;4954248;28;20129;-59
2022/10/10 10:19:38;;;;;;;16.35;7.63;;;14.90;99.90;;;;;;4954207;28;20039;-59
2022/10/10 10:22:21;;;;;;;16.55;8.68;;;15.00;99.90;;;;;;4953143;28;20121;-58
2022/10/10 10:24:46;;;;;;;15.73;8.50;;;15.10;99.90;;;;;;4954746;28;20074;-59
2022/10/10 10:27:19;;;;;;;10.40;8.07;;;15.20;99.90;;;;;;4928220;28;20082;-57
2022/10/10 10:29:48;;;;;;;10.68;7.72;;;15.10;99.90;;;;;;4955393;28;20434;-59
2022/10/10 10:32:31;;;;;;;14.23;7.80;;;15.10;99.90;;;;;;4954445;28;20425;-58
2022/10/10 10:35:12;;;;;;;11.70;7.57;;;15.00;99.90;;;;;;4954545;28;20049;-57
2022/10/10 10:38:15;;;;;;;11.60;7.45;;;15.20;99.90;;;;;;4954611;28;20051;-59
2022/10/10 10:40:41;;;;;;;;;;;15.40;99.90;;;;;;4949530;28;20153;-58
2022/10/10 10:43:39;;;;;;;10.32;7.45;;;15.70;99.90;;;;;;4955581;28;19972;-59
2022/10/10 10:46:19;;;;;;;12.15;7.30;;;16.00;99.90;;;;;;4954585;28;20054;-58
2022/10/10 10:48:55;;;;;;;16.48;8.43;;;16.10;99.90;;;;;;4935212;28;20513;-58
2022/10/10 10:51:35;;;;;;;17.27;8.20;;;16.10;99.90;;;;;;4939439;28;20474;-59
2022/10/10 10:54:40;;;;;;;15.23;8.48;;;16.10;99.90;;;;;;4955551;28;20039;-58
2022/10/10 10:57:17;;;;;;;15.73;7.43;;;16.10;99.90;;;;;;4918530;28;20062;-59
2022/10/10 10:59:58;;;;;;;13.80;7.15;;;16.10;99.90;;;;;;4953560;28;20043;-58
2022/10/10 11:02:42;;;;;;;10.63;7.28;;;16.10;99.90;;;;;;4951969;28;20042;-58
2022/10/10 11:05:29;;;;;;;12.85;7.20;;;16.10;99.90;;;;;;4952151;28;20138;-57
2022/10/10 11:08:14;;;;;;;10.13;6.85;;;16.10;99.90;;;;;;4952842;28;20118;-58
2022/10/10 11:10:52;;;;;;;15.90;7.07;;;16.00;99.90;;;;;;4954615;28;20054;-59
2022/10/10 11:13:23;;;;;;;12.40;6.97;;;15.90;99.90;;;;;;4953093;28;20545;-59
2022/10/10 11:16:09;;;;;;;11.45;7.47;;;15.90;99.90;;;;;;4952604;28;20042;-58
2022/10/10 11:18:42;;;;;;;11.77;7.45;;;15.80;99.90;;;;;;4953387;28;20367;-59
2022/10/10 11:21:13;;;;;;;15.10;7.38;;;15.70;99.90;;;;;;4953369;28;20047;-59
2022/10/10 11:23:45;;;;;;;13.85;7.00;;;15.60;99.90;;;;;;4952144;28;20066;-58
2022/10/10 11:26:19;;;;;;;15.93;7.47;;;15.60;99.90;;;;;;4931420;28;20051;-59
2022/10/10 11:29:05;;;;;;;17.08;7.57;;;15.50;99.90;;;;;;4953292;28;20409;-58
2022/10/10 11:31:38;;;;;;;16.77;7.35;;;15.50;99.90;;;;;;4956970;28;20134;-59
2022/10/10 11:34:22;;;;;;;12.07;7.32;;;15.40;99.90;;;;;;4956314;28;20464;-58
2022/10/10 11:36:48;;;;;;;14.00;7.43;;;15.30;99.90;;;;;;4957729;28;20050;-57
2022/10/10 11:39:30;;;;;;;12.55;7.82;;;15.30;99.90;;;;;;4956879;28;20039;-58
2022/10/10 11:42:06;;;;;;;13.25;7.97;;;15.20;99.90;;;;;;4957003;28;20523;-58
2022/10/10 11:44:38;;;;;;;11.88;7.85;;;15.10;99.90;;;;;;4959149;28;20057;-59
2022/10/10 11:47:38;;;;;;;10.73;7.22;;;15.00;99.90;;;;;;4959242;28;20129;-58
2022/10/10 11:50:21;;;;;;;13.57;8.15;;;15.00;99.90;;;;;;4956046;28;20058;-58
2022/10/10 11:52:47;;;;;;;11.85;7.85;;;15.00;99.90;;;;;;4954396;28;20085;-60
2022/10/10 11:55:16;;;;;;;11.85;7.40;;;15.00;99.90;;;;;;4956163;28;20086;-59
2022/10/10 11:57:52;;;;;;;15.07;7.75;;;15.00;99.90;;;;;;4962082;28;20073;-57
2022/10/10 12:00:18;;;;;;;13.85;7.57;;;15.00;99.90;;;;;;4958706;28;20804;-57
2022/10/10 12:02:46;;;;;;;14.45;8.18;;;15.00;99.90;;;;;;4955022;28;20050;-59
2022/10/10 12:05:27;;;;;;;15.07;8.30;;;15.00;99.90;;;;;;4957863;28;20054;-59
2022/10/10 12:07:56;;;;;;;17.50;8.60;;;15.00;99.90;;;;;;4959336;28;20053;-58
2022/10/10 12:10:31;;;;;;;19.10;9.38;;;15.00;99.90;;;;;;4958532;28;20054;-58
2022/10/10 12:13:03;;;;;;;12.77;8.40;;;14.90;99.90;;;;;;4957592;28;20051;-59
2022/10/10 12:15:33;;;;;;;17.60;9.50;;;14.90;99.90;;;;;;4954924;28;20294;-59
2022/10/10 12:17:59;;;;;;;16.25;8.75;;;14.90;99.90;;;;;;4956408;28;20046;-61
2022/10/10 12:20:25;;;;;;;15.95;9.15;;;14.90;99.90;;;;;;4953951;28;20046;-60
2022/10/10 12:23:12;;;;;;;16.23;8.90;;;14.90;99.90;;;;;;4951042;28;20056;-58
2022/10/10 12:25:46;;;;;;;19.13;8.65;;;15.00;99.90;;;;;;4936176;28;20054;-58
2022/10/10 12:28:12;;;;;;;17.75;9.23;;;15.00;99.90;;;;;;4951124;28;20050;-59
2022/10/10 12:31:03;;;;;;;16.08;9.85;;;15.00;99.90;;;;;;4942774;28;20084;-59
2022/10/10 12:33:32;;;;;;;14.38;9.43;;;15.00;99.90;;;;;;4950696;28;20038;-59
2022/10/10 12:36:17;;;;;;;14.95;9.20;;;15.00;99.90;;;;;;4956975;28;20509;-59
2022/10/10 12:39:01;;;;;;;14.82;8.82;;;15.00;99.90;;;;;;4954942;28;21114;-59
2022/10/10 12:41:46;;;;;;;15.75;9.40;;;14.90;99.90;;;;;;4959224;28;20121;-56
2022/10/10 12:44:21;;;;;;;21.63;10.10;;;14.90;99.90;;;;;;4952715;28;20401;-64
2022/10/10 12:47:13;;;;;;;17.88;9.10;;;14.90;99.90;;;;;;4933227;28;20183;-63
2022/10/10 12:49:59;;;;;;;15.63;9.45;;;14.80;99.90;;;;;;4932764;28;21565;-63
2022/10/10 12:52:27;;;;;;;15.07;9.95;;;14.80;99.90;;;;;;4950232;28;21026;-63
2022/10/10 12:55:00;;;;;;;19.10;10.48;;;14.70;99.90;;;;;;4924427;28;20054;-63
2022/10/10 12:57:34;;;;;;;19.08;10.50;;;14.70;99.90;;;;;;4921634;28;20066;-63
2022/10/10 13:00:34;;;;;;;16.20;10.02;;;14.60;99.90;;;;;;4952216;28;20146;-63
2022/10/10 13:03:03;;;;;;;15.25;10.07;;;14.50;99.90;;;;;;4957521;28;20085;-63
2022/10/10 13:05:33;;;;;;;14.80;10.48;;;14.50;99.90;;;;;;4947232;28;20051;-63